createdAt,value
2022-10-10T00:02:00.352Z,99.90
2022-10-10T00:04:28.488Z,99.90
2022-10-10T00:06:56.599Z,99.90
2022-10-10T00:09:24.754Z,99.90
2022-10-10T00:11:54.234Z,99.90
2022-10-10T00:14:22.407Z,99.90
2022-10-10T00:16:50.586Z,99.90
2022-10-10T00:19:18.945Z,99.90
2022-10-10T00:21:47.626Z,99.90
2022-10-10T00:24:15.764Z,99.90
2022-10-10T00:26:43.960Z,99.90
2022-10-10T00:29:13.510Z,99.90
2022-10-10T00:31:41.718Z,99.90
2022-10-10T00:34:09.872Z,99.90
2022-10-10T00:36:38.013Z,99.90
2022-10-10T00:39:06.113Z,99.90
2022-10-10T00:41:34.358Z,99.90
2022-10-10T00:44:07.901Z,99.90
2022-10-10T00:46:37.507Z,99.90
2022-10-10T00:49:08.632Z,99.90
2022-10-10T00:51:37.969Z,99.90
2022-10-10T00:54:09.726Z,99.90
2022-10-10T00:56:41.158Z,99.90
2022-10-10T00:59:11.248Z,99.90
2022-10-10T01:01:41.765Z,99.90
2022-10-10T01:04:32.148Z,99.90
2022-10-10T01:07:01.469Z,99.90
2022-10-10T01:09:30.241Z,99.90
2022-10-10T01:12:07.908Z,99.90
2022-10-10T01:14:47.330Z,99.90
2022-10-10T01:17:30.999Z,99.90
2022-10-10T01:20:35.804Z,99.90
2022-10-10T01:23:24.079Z,99.90
2022-10-10T01:26:02.390Z,99.90
2022-10-10T01:28:41.025Z,99.90
2022-10-10T01:31:13.698Z,99.90
2022-10-10T01:33:52.326Z,99.90
2022-10-10T01:36:28.310Z,99.90
2022-10-10T01:39:03.624Z,99.90
2022-10-10T01:41:37.237Z,99.90
2022-10-10T01:44:06.733Z,99.90
2022-10-10T01:46:35.037Z,99.90
2022-10-10T01:49:03.807Z,99.90
2022-10-10T01:51:49.018Z,99.90
2022-10-10T01:54:32.397Z,99.90
2022-10-10T01:57:11.615Z,99.90
2022-10-10T01:59:53.954Z,99.90
2022-10-10T02:02:30.619Z,99.90
2022-10-10T02:05:02.930Z,99.90
2022-10-10T02:07:36.544Z,99.90
2022-10-10T02:10:07.784Z,99.90
2022-10-10T02:12:37.278Z,99.90
2022-10-10T02:15:12.939Z,99.90
2022-10-10T02:17:42.803Z,99.90
2022-10-10T02:20:13.506Z,99.90
2022-10-10T02:22:44.123Z,99.90
2022-10-10T02:25:13.270Z,99.90
2022-10-10T02:27:47.842Z,99.90
2022-10-10T02:30:18.189Z,99.90
2022-10-10T02:32:50.482Z,99.90
2022-10-10T02:35:21.024Z,99.90
2022-10-10T02:37:50.718Z,99.90
2022-10-10T02:40:23.000Z,99.90
2022-10-10T02:42:53.336Z,99.90
2022-10-10T02:45:24.166Z,99.90
2022-10-10T02:47:52.685Z,99.90
2022-10-10T02:50:21.488Z,99.90
2022-10-10T02:52:49.992Z,99.90
2022-10-10T02:55:18.579Z,99.90
2022-10-10T02:57:46.717Z,99.90
2022-10-10T03:00:16.429Z,99.90
2022-10-10T03:02:47.340Z,99.90
2022-10-10T03:05:15.606Z,99.90
2022-10-10T03:07:43.740Z,99.90
2022-10-10T03:10:11.886Z,99.90
2022-10-10T03:12:40.043Z,99.90
2022-10-10T03:15:11.620Z,99.90
2022-10-10T03:17:40.409Z,99.90
2022-10-10T03:20:11.567Z,99.90
2022-10-10T03:22:39.762Z,99.90
2022-10-10T03:25:08.697Z,99.90
2022-10-10T03:27:36.877Z,99.90
2022-10-10T03:30:05.675Z,99.90
2022-10-10T03:32:33.810Z,99.90
2022-10-10T03:35:01.926Z,99.90
2022-10-10T03:37:31.500Z,99.90
2022-10-10T03:39:59.657Z,99.90
2022-10-10T03:42:27.814Z,99.90
2022-10-10T03:44:55.945Z,99.90
2022-10-10T03:47:24.117Z,99.90
2022-10-10T03:49:52.243Z,99.90
2022-10-10T03:52:21.938Z,99.90
2022-10-10T03:54:51.463Z,99.90
2022-10-10T03:57:19.671Z,99.90
2022-10-10T03:59:47.785Z,99.90
2022-10-10T04:02:16.003Z,99.90
2022-10-10T04:04:44.238Z,99.90
2022-10-10T04:07:12.848Z,99.90
2022-10-10T04:09:41.015Z,99.90
2022-10-10T04:12:10.483Z,99.90
2022-10-10T04:14:38.690Z,99.90
2022-10-10T04:17:06.839Z,99.90
2022-10-10T04:19:35.008Z,99.90
2022-10-10T04:22:03.135Z,99.90
2022-10-10T04:24:31.504Z,99.90
2022-10-10T04:26:59.710Z,99.90
2022-10-10T04:29:29.313Z,99.90
2022-10-10T04:31:57.453Z,99.90
2022-10-10T04:34:25.677Z,99.90
2022-10-10T04:36:53.791Z,99.90
2022-10-10T04:39:22.286Z,99.90
2022-10-10T04:41:50.998Z,99.90
2022-10-10T04:44:20.214Z,99.90
2022-10-10T04:46:49.729Z,99.90
2022-10-10T04:49:17.868Z,99.90
2022-10-10T04:51:46.115Z,99.90
2022-10-10T04:54:14.339Z,99.90
2022-10-10T04:56:42.937Z,99.90
2022-10-10T04:59:11.436Z,99.90
2022-10-10T05:01:39.655Z,99.90
2022-10-10T05:04:09.225Z,99.90
2022-10-10T05:06:37.348Z,99.90
2022-10-10T05:09:05.620Z,99.90
2022-10-10T05:11:33.732Z,99.90
2022-10-10T05:14:02.967Z,99.90
2022-10-10T05:16:31.334Z,99.90
2022-10-10T05:18:59.609Z,99.90
2022-10-10T05:21:29.248Z,99.90
2022-10-10T05:23:57.373Z,99.90
2022-10-10T05:26:25.561Z,99.90
2022-10-10T05:28:54.568Z,99.90
2022-10-10T05:31:22.669Z,99.90
2022-10-10T05:33:50.859Z,99.90
2022-10-10T05:36:19.012Z,99.90
2022-10-10T05:38:48.499Z,99.90
2022-10-10T05:41:16.639Z,99.90
2022-10-10T05:43:44.884Z,99.90
2022-10-10T05:46:13.029Z,99.90
2022-10-10T05:48:41.278Z,99.90
2022-10-10T05:51:09.462Z,99.90
2022-10-10T05:53:37.700Z,99.90
2022-10-10T05:56:08.041Z,99.90
2022-10-10T05:58:36.412Z,99.90
2022-10-10T06:01:06.638Z,99.90
2022-10-10T06:03:35.976Z,99.90
2022-10-10T06:06:04.941Z,99.90
2022-10-10T06:08:33.182Z,99.90
2022-10-10T06:11:07.925Z,99.90
2022-10-10T06:13:38.828Z,99.90
2022-10-10T06:16:07.187Z,99.90
2022-10-10T06:18:35.414Z,99.90
2022-10-10T06:21:04.819Z,99.90
2022-10-10T06:23:33.909Z,99.90
2022-10-10T06:26:02.063Z,99.90
2022-10-10T06:28:30.264Z,99.90
2022-10-10T06:31:02.712Z,99.90
2022-10-10T06:33:31.068Z,99.90
2022-10-10T06:35:59.403Z,99.90
2022-10-10T06:38:28.475Z,99.90
2022-10-10T06:41:00.394Z,99.90
2022-10-10T06:43:28.820Z,99.90
2022-10-10T06:45:56.993Z,99.90
2022-10-10T06:48:26.733Z,99.90
2022-10-10T06:50:59.726Z,99.90
2022-10-10T06:53:28.175Z,99.90
2022-10-10T06:55:59.150Z,99.90
2022-10-10T06:58:28.041Z,99.90
2022-10-10T07:00:57.833Z,99.90
2022-10-10T07:03:28.315Z,99.90
2022-10-10T07:05:59.185Z,99.90
2022-10-10T07:08:28.583Z,99.90
2022-10-10T07:10:57.707Z,99.90
2022-10-10T07:13:25.968Z,99.90
2022-10-10T07:15:54.210Z,99.90
2022-10-10T07:18:22.931Z,99.90
2022-10-10T07:20:56.327Z,99.90
2022-10-10T07:23:24.508Z,99.90
2022-10-10T07:25:54.705Z,99.90
2022-10-10T07:28:23.405Z,99.90
2022-10-10T07:30:52.148Z,99.90
2022-10-10T07:33:20.454Z,99.90
2022-10-10T07:35:55.700Z,99.90
2022-10-10T07:38:24.220Z,99.90
2022-10-10T07:40:52.361Z,99.90
2022-10-10T07:43:20.530Z,99.90
2022-10-10T07:45:48.740Z,99.90
2022-10-10T07:48:17.592Z,99.90
2022-10-10T07:50:46.261Z,99.90
2022-10-10T07:53:15.841Z,99.90
2022-10-10T07:55:44.901Z,99.90
2022-10-10T07:58:13.309Z,99.90
2022-10-10T08:00:42.379Z,99.90
2022-10-10T08:03:12.050Z,99.90
2022-10-10T08:05:42.722Z,99.90
2022-10-10T08:08:12.416Z,99.90
2022-10-10T08:10:44.604Z,99.90
2022-10-10T08:13:12.722Z,99.90
2022-10-10T08:15:41.159Z,99.90
2022-10-10T08:18:09.386Z,99.90
2022-10-10T08:20:37.528Z,99.90
2022-10-10T08:23:05.775Z,99.90
2022-10-10T08:25:33.878Z,99.90
2022-10-10T08:28:03.401Z,99.90
2022-10-10T08:30:31.676Z,99.90
2022-10-10T08:32:59.857Z,99.90
2022-10-10T08:35:28.000Z,99.90
2022-10-10T08:37:56.132Z,99.90
2022-10-10T08:40:28.691Z,99.90
2022-10-10T08:42:59.547Z,99.90
2022-10-10T08:45:30.369Z,99.90
2022-10-10T08:48:02.088Z,99.90
2022-10-10T08:50:33.939Z,99.90
2022-10-10T08:53:07.241Z,99.90
2022-10-10T08:55:39.095Z,99.90
2022-10-10T08:58:13.316Z,99.90
2022-10-10T09:00:48.478Z,99.90
2022-10-10T09:03:25.289Z,99.90
2022-10-10T09:06:08.479Z,99.90
2022-10-10T09:08:47.744Z,99.90
2022-10-10T09:11:31.219Z,99.90
2022-10-10T09:14:12.976Z,99.90
2022-10-10T09:16:50.181Z,99.90
2022-10-10T09:19:32.568Z,99.90
2022-10-10T09:22:04.362Z,99.90
2022-10-10T09:24:41.135Z,99.90
2022-10-10T09:27:15.858Z,99.90
2022-10-10T09:29:48.680Z,99.90
2022-10-10T09:32:22.293Z,99.90
2022-10-10T09:34:54.957Z,99.90
2022-10-10T09:37:45.703Z,99.90
2022-10-10T09:40:23.460Z,99.90
2022-10-10T09:42:52.396Z,99.90
2022-10-10T09:45:25.582Z,99.90
2022-10-10T09:47:57.532Z,99.90
2022-10-10T09:50:27.873Z,99.90
2022-10-10T09:52:58.243Z,99.90
2022-10-10T09:55:30.829Z,99.90
2022-10-10T09:58:05.436Z,99.90
2022-10-10T10:00:38.101Z,99.90
2022-10-10T10:03:17.140Z,99.90
2022-10-10T10:05:49.166Z,99.90
2022-10-10T10:08:25.135Z,99.90
2022-10-10T10:10:57.912Z,99.90
2022-10-10T10:13:30.928Z,99.90
2022-10-10T10:16:06.114Z,99.90
2022-10-10T10:18:42.519Z,99.90
2022-10-10T10:21:14.726Z,99.90
2022-10-10T10:23:45.169Z,99.90
2022-10-10T10:26:24.583Z,99.90
2022-10-10T10:29:03.682Z,99.90
2022-10-10T10:31:59.389Z,99.90
2022-10-10T10:34:53.040Z,99.90
2022-10-10T10:37:24.507Z,99.90
2022-10-10T10:40:15.726Z,99.90
2022-10-10T10:43:04.843Z,99.90
2022-10-10T10:45:40.596Z,99.90
2022-10-10T10:48:22.968Z,99.90
2022-10-10T10:50:55.788Z,99.90
2022-10-10T10:53:32.999Z,99.90
2022-10-10T10:56:12.966Z,99.90
2022-10-10T11:02:26.298Z,99.90
2022-10-10T11:05:36.730Z,99.90
2022-10-10T11:08:27.991Z,99.90
2022-10-10T11:11:14.230Z,99.90
2022-10-10T11:13:51.948Z,99.90
2022-10-10T11:16:49.704Z,99.90
2022-10-10T11:19:24.024Z,99.90
2022-10-10T11:21:57.223Z,99.90
2022-10-10T11:24:34.954Z,99.90
2022-10-10T11:27:10.887Z,99.90
2022-10-10T11:29:51.999Z,99.90
2022-10-10T11:32:25.473Z,99.90
2022-10-10T11:35:06.899Z,99.90
2022-10-10T11:37:41.934Z,99.90
2022-10-10T11:40:41.545Z,99.90
2022-10-10T11:43:18.456Z,99.90
2022-10-10T11:45:53.626Z,99.90
2022-10-10T11:48:29.318Z,99.90
2022-10-10T11:51:05.330Z,99.90
2022-10-10T11:53:39.484Z,99.90
2022-10-10T11:56:15.597Z,99.90
2022-10-10T11:58:48.887Z,99.90
2022-10-10T12:01:23.279Z,99.90
2022-10-10T12:03:52.356Z,99.90
2022-10-10T12:06:26.723Z,99.90
2022-10-10T12:09:02.915Z,99.90
2022-10-10T12:11:38.234Z,99.90
2022-10-10T12:14:09.915Z,99.90
2022-10-10T12:16:39.276Z,99.90
2022-10-10T12:19:14.924Z,99.90
2022-10-10T12:22:01.070Z,99.90
2022-10-10T12:24:31.399Z,99.90
2022-10-10T12:27:43.378Z,99.90
2022-10-10T12:30:21.865Z,99.90
2022-10-10T12:32:54.096Z,99.90
2022-10-10T12:35:43.441Z,99.90
2022-10-10T12:38:24.059Z,99.90
2022-10-10T12:41:15.651Z,99.90
2022-10-10T12:44:15.851Z,99.90
2022-10-10T12:46:44.635Z,99.90
2022-10-10T12:49:20.586Z,99.90
2022-10-10T12:52:06.181Z,99.90
2022-10-10T12:54:40.601Z,99.90
2022-10-10T12:57:18.808Z,99.90
2022-10-10T12:59:48.621Z,99.10
2022-10-10T13:02:23.277Z,97.40
2022-10-10T13:04:55.763Z,96.70
2022-10-10T13:07:25.239Z,97.30
2022-10-10T13:09:55.423Z,96.50
2022-10-10T13:12:27.659Z,96.00
2022-10-10T13:14:57.944Z,95.90
2022-10-10T13:17:29.143Z,96.40
2022-10-10T13:19:59.486Z,96.80
2022-10-10T13:22:28.813Z,97.40
2022-10-10T13:24:57.297Z,97.50
2022-10-10T13:27:27.417Z,96.50
2022-10-10T13:29:58.390Z,96.20
2022-10-10T13:32:29.576Z,98.30
2022-10-10T13:35:00.701Z,99.60
2022-10-10T13:37:29.711Z,99.90
2022-10-10T13:39:58.793Z,99.90
2022-10-10T13:42:38.775Z,99.90
2022-10-10T13:45:36.696Z,99.90
2022-10-10T13:48:21.772Z,98.70
2022-10-10T13:51:08.716Z,99.00
2022-10-10T13:53:52.366Z,99.30
2022-10-10T13:56:41.424Z,98.50
2022-10-10T13:59:14.087Z,98.10
2022-10-10T14:01:44.592Z,98.80
2022-10-10T14:04:23.508Z,99.30
2022-10-10T14:06:59.717Z,98.50
2022-10-10T14:09:32.976Z,98.80
2022-10-10T14:12:04.335Z,98.70
2022-10-10T14:14:42.073Z,97.10
2022-10-10T14:17:11.972Z,95.50
2022-10-10T14:19:42.347Z,94.80
2022-10-10T14:22:11.020Z,94.80
2022-10-10T14:24:39.177Z,96.60
2022-10-10T14:27:14.782Z,96.70
2022-10-10T14:29:43.573Z,97.40
2022-10-10T14:32:12.960Z,98.10
2022-10-10T14:34:42.907Z,98.10
2022-10-10T14:37:18.444Z,98.40
2022-10-10T14:39:47.565Z,99.50
2022-10-10T14:42:18.193Z,99.90
2022-10-10T14:44:46.752Z,99.90
2022-10-10T14:47:17.790Z,99.90
2022-10-10T14:49:47.581Z,99.90
2022-10-10T14:52:16.141Z,99.90
2022-10-10T14:54:44.373Z,99.90
2022-10-10T14:57:14.439Z,99.90
2022-10-10T14:59:47.126Z,99.90
2022-10-10T15:02:19.251Z,99.90
2022-10-10T15:04:49.004Z,99.90
2022-10-10T15:07:18.174Z,99.90
2022-10-10T15:10:17.596Z,99.90
2022-10-10T15:12:38.818Z,99.90
2022-10-10T15:15:08.054Z,99.90
2022-10-10T15:17:36.847Z,99.90
2022-10-10T15:20:09.046Z,99.90
2022-10-10T15:22:38.277Z,99.90
2022-10-10T15:25:07.762Z,99.90
2022-10-10T15:27:37.501Z,99.90
2022-10-10T15:30:06.580Z,99.90
2022-10-10T15:32:34.878Z,99.90
2022-10-10T15:35:03.045Z,99.90
2022-10-10T15:37:32.598Z,99.90
2022-10-10T15:40:00.793Z,99.90
2022-10-10T15:42:29.602Z,99.90
2022-10-10T15:44:57.760Z,99.90
2022-10-10T15:47:25.961Z,99.90
2022-10-10T15:49:54.107Z,99.90
2022-10-10T15:52:23.372Z,99.90
2022-10-10T15:54:53.250Z,99.90
2022-10-10T15:57:22.961Z,99.90
2022-10-10T15:59:51.093Z,99.90
2022-10-10T16:02:19.905Z,99.90
2022-10-10T16:04:48.047Z,99.90
2022-10-10T16:07:34.808Z,99.90
2022-10-10T16:10:06.183Z,99.90
2022-10-10T16:12:34.410Z,99.90
2022-10-10T16:15:06.879Z,99.90
2022-10-10T16:17:35.517Z,99.90
2022-10-10T16:20:03.733Z,99.90
2022-10-10T16:22:31.933Z,99.90
2022-10-10T16:27:50.245Z,99.90
2022-10-10T16:30:19.907Z,99.90
2022-10-10T16:32:48.330Z,99.90
2022-10-10T16:35:16.583Z,99.90
2022-10-10T16:37:44.717Z,99.90
2022-10-10T16:40:13.479Z,99.90
2022-10-10T16:42:41.589Z,99.90
2022-10-10T16:45:12.148Z,99.90
2022-10-10T16:47:40.265Z,99.90
2022-10-10T16:50:09.181Z,99.90
2022-10-10T16:52:38.330Z,99.90
2022-10-10T16:55:07.825Z,99.90
2022-10-10T16:57:36.430Z,99.90
2022-10-10T17:00:05.819Z,99.90
2022-10-10T17:02:35.650Z,99.90
2022-10-10T17:05:03.872Z,99.90
2022-10-10T17:07:31.989Z,99.90
2022-10-10T17:10:00.124Z,99.90
2022-10-10T17:12:28.306Z,99.90
2022-10-10T17:14:56.458Z,99.90
2022-10-10T17:17:24.583Z,99.90
2022-10-10T17:19:54.169Z,99.90
2022-10-10T17:22:22.404Z,99.90
2022-10-10T17:24:50.892Z,99.90
2022-10-10T17:27:18.980Z,99.90
2022-10-10T17:29:47.339Z,99.90
2022-10-10T17:32:15.446Z,99.90
2022-10-10T17:34:43.616Z,99.90
2022-10-10T17:37:13.441Z,99.90
2022-10-10T17:39:41.667Z,99.90
2022-10-10T17:42:09.944Z,99.90
2022-10-10T17:44:44.827Z,99.90
2022-10-10T17:47:17.257Z,99.90
2022-10-10T17:49:46.689Z,99.90
2022-10-10T17:52:20.964Z,99.90
2022-10-10T17:54:50.667Z,99.90
2022-10-10T17:57:19.768Z,99.90
2022-10-10T17:59:47.969Z,99.90
2022-10-10T18:02:17.653Z,99.90
2022-10-10T18:04:48.662Z,99.90
2022-10-10T18:07:18.895Z,99.90
2022-10-10T18:09:47.188Z,99.90
2022-10-10T18:12:15.419Z,99.90
2022-10-10T18:14:43.649Z,99.90
2022-10-10T18:17:12.217Z,99.90
2022-10-10T18:19:40.602Z,99.90
2022-10-10T18:22:08.867Z,99.90
2022-10-10T18:24:38.523Z,99.90
2022-10-10T18:27:06.725Z,99.90
2022-10-10T18:29:35.086Z,99.90
2022-10-10T18:32:03.459Z,99.90
2022-10-10T18:34:31.599Z,99.90
2022-10-10T18:36:59.777Z,99.90
2022-10-10T18:39:32.942Z,99.90
2022-10-10T18:42:02.821Z,99.90
2022-10-10T18:44:31.023Z,99.90
2022-10-10T18:46:59.417Z,99.90
2022-10-10T18:49:28.261Z,99.90
2022-10-10T18:51:56.850Z,99.90
2022-10-10T18:54:27.202Z,99.90
2022-10-10T18:56:55.438Z,99.90
2022-10-10T18:59:25.140Z,99.90
2022-10-10T19:01:53.370Z,99.90
2022-10-10T19:04:21.903Z,99.90
2022-10-10T19:06:56.000Z,99.90
2022-10-10T19:09:25.646Z,99.90
2022-10-10T19:11:53.788Z,99.90
2022-10-10T19:14:21.985Z,99.90
2022-10-10T19:16:51.478Z,99.90
2022-10-10T19:19:20.772Z,99.90
2022-10-10T19:21:49.798Z,99.90
2022-10-10T19:24:21.301Z,99.90
2022-10-10T19:26:56.354Z,99.90
2022-10-10T19:29:25.458Z,99.90
2022-10-10T19:31:55.981Z,99.90
2022-10-10T19:34:24.695Z,99.90
2022-10-10T19:36:53.598Z,99.90
2022-10-10T19:39:21.844Z,99.90
2022-10-10T19:41:50.150Z,99.90
2022-10-10T19:44:18.417Z,99.90
2022-10-10T19:46:46.546Z,99.90
2022-10-10T19:49:16.088Z,99.90
2022-10-10T19:51:44.207Z,99.90
2022-10-10T19:54:12.499Z,99.90
2022-10-10T19:56:40.672Z,99.90
2022-10-10T19:59:09.196Z,99.90
2022-10-10T20:01:37.616Z,99.90
2022-10-10T20:04:05.911Z,99.90
2022-10-10T20:06:36.600Z,99.90
2022-10-10T20:09:09.682Z,99.90
2022-10-10T20:11:39.505Z,99.90
2022-10-10T20:14:07.915Z,99.90
2022-10-10T20:16:36.074Z,99.90
2022-10-10T20:19:04.256Z,99.90
2022-10-10T20:21:34.683Z,99.90
2022-10-10T20:24:07.006Z,99.90
2022-10-10T20:26:36.482Z,99.90
2022-10-10T20:29:05.377Z,99.90
2022-10-10T20:31:35.799Z,99.90
2022-10-10T20:34:05.513Z,99.90
2022-10-10T20:36:34.969Z,99.90
2022-10-10T20:39:07.920Z,99.90
2022-10-10T20:41:37.799Z,99.90
2022-10-10T20:44:07.379Z,99.90
2022-10-10T20:46:37.311Z,99.90
2022-10-10T20:49:08.163Z,99.90
2022-10-10T20:51:36.338Z,99.90
2022-10-10T20:54:07.982Z,99.90
2022-10-10T20:56:37.188Z,99.90
2022-10-10T20:59:06.865Z,99.90
2022-10-10T21:01:35.677Z,99.90
2022-10-10T21:04:04.292Z,99.90
2022-10-10T21:06:34.504Z,99.90
2022-10-10T21:09:04.623Z,99.90
2022-10-10T21:11:35.097Z,99.90
2022-10-10T21:14:03.686Z,99.90
2022-10-10T21:16:33.643Z,99.90
2022-10-10T21:19:05.967Z,99.90
2022-10-10T21:21:36.109Z,99.90
2022-10-10T21:24:05.964Z,99.90
2022-10-10T21:26:35.508Z,99.90
2022-10-10T21:29:03.771Z,99.90
2022-10-10T21:31:33.996Z,99.90
2022-10-10T21:34:03.238Z,99.90
2022-10-10T21:36:32.723Z,99.90
2022-10-10T21:39:02.240Z,99.90
2022-10-10T21:41:30.596Z,99.90
2022-10-10T21:44:01.123Z,99.90
2022-10-10T21:46:35.852Z,99.90
2022-10-10T21:49:06.830Z,99.90
2022-10-10T21:51:39.452Z,99.90
2022-10-10T21:54:09.343Z,99.90
2022-10-10T21:56:38.118Z,99.90
2022-10-10T21:59:08.118Z,99.90
2022-10-10T22:01:37.651Z,99.90
2022-10-10T22:04:06.354Z,99.90
2022-10-10T22:06:34.607Z,99.90
2022-10-10T22:09:03.508Z,99.90
2022-10-10T22:11:35.447Z,99.90
2022-10-10T22:14:04.126Z,99.90
2022-10-10T22:16:34.944Z,99.90
2022-10-10T22:19:03.747Z,99.90
2022-10-10T22:21:32.641Z,99.90
2022-10-10T22:24:02.580Z,99.90
2022-10-10T22:26:31.408Z,99.90
2022-10-10T22:28:59.818Z,99.90
2022-10-10T22:31:29.365Z,99.90
2022-10-10T22:34:00.401Z,99.90
2022-10-10T22:36:28.630Z,99.90
2022-10-10T22:38:56.769Z,99.90
2022-10-10T22:41:24.939Z,99.90
2022-10-10T22:43:54.208Z,99.90
2022-10-10T22:46:22.521Z,99.90
2022-10-10T22:48:50.747Z,99.90
2022-10-10T22:51:20.233Z,99.90
2022-10-10T22:53:49.327Z,99.90
2022-10-10T22:56:20.290Z,99.90
2022-10-10T22:58:49.400Z,99.90
2022-10-10T23:01:20.323Z,99.90
2022-10-10T23:03:49.063Z,99.90
2022-10-10T23:06:18.935Z,99.90
2022-10-10T23:08:47.127Z,99.90
2022-10-10T23:11:15.291Z,99.90
2022-10-10T23:13:43.600Z,99.90
2022-10-10T23:16:12.290Z,99.90
2022-10-10T23:18:40.441Z,99.90
2022-10-10T23:21:08.566Z,99.90
2022-10-10T23:23:38.034Z,99.90
2022-10-10T23:26:08.466Z,99.90
2022-10-10T23:28:37.100Z,99.90
2022-10-10T23:31:07.758Z,99.90
2022-10-10T23:33:37.280Z,99.90
2022-10-10T23:36:08.716Z,99.90
2022-10-10T23:38:38.943Z,99.90
2022-10-10T23:41:07.695Z,99.90
2022-10-10T23:43:36.222Z,99.90
2022-10-10T23:46:05.200Z,99.90
2022-10-10T23:48:33.521Z,99.90
2022-10-10T23:51:01.734Z,99.90
2022-10-10T23:53:30.274Z,99.90
2022-10-10T23:55:59.878Z,99.90
2022-10-10T23:58:28.050Z,99.90
